createdAt,value
2023-04-08T00:00:54.838Z,50.2139
2023-04-08T00:01:56.486Z,50.1336
2023-04-08T00:02:58.228Z,50.1047
2023-04-08T00:04:00.122Z,50.0568
2023-04-08T00:05:01.500Z,50.0694
2023-04-08T00:06:03.209Z,50.0911
2023-04-08T00:07:04.749Z,50.0948
2023-04-08T00:08:06.476Z,50.1640
2023-04-08T00:09:08.084Z,50.0306
2023-04-08T00:10:09.628Z,49.9271
2023-04-08T00:11:11.457Z,49.9210
2023-04-08T00:12:13.071Z,49.8854
2023-04-08T00:13:14.731Z,49.8422
2023-04-08T00:14:16.363Z,49.7962
2023-04-08T00:15:17.986Z,49.8279
2023-04-08T00:16:19.689Z,49.7566
2023-04-08T00:17:21.267Z,49.6763
2023-04-08T00:18:22.918Z,49.6168
2023-04-08T00:19:24.595Z,49.6771
2023-04-08T00:20:26.394Z,49.7307
2023-04-08T00:21:27.803Z,49.8007
2023-04-08T00:22:29.602Z,49.7675
2023-04-08T00:23:31.194Z,49.6926
2023-04-08T00:24:33.305Z,49.6841
2023-04-08T00:25:37.150Z,49.6435
2023-04-08T00:26:36.140Z,49.5624
2023-04-08T00:27:37.872Z,49.5606
2023-04-08T00:28:39.514Z,49.5501
2023-04-08T00:29:41.156Z,49.5632
2023-04-08T00:30:42.766Z,49.4982
2023-04-08T00:31:44.475Z,49.4602
2023-04-08T00:32:46.013Z,49.3626
2023-04-08T00:33:47.751Z,49.3777
2023-04-08T00:34:49.423Z,51.1805
2023-04-08T00:35:51.172Z,53.8825
2023-04-08T00:36:52.727Z,53.6268
2023-04-08T00:37:54.332Z,52.9010
2023-04-08T00:38:55.994Z,52.2454
2023-04-08T00:39:57.666Z,51.8339
2023-04-08T00:40:59.214Z,51.9337
2023-04-08T00:42:00.923Z,52.1188
2023-04-08T00:43:02.705Z,52.4889
2023-04-08T00:44:04.274Z,52.2647
2023-04-08T00:45:05.973Z,51.8949
2023-04-08T00:46:07.586Z,51.5818
2023-04-08T00:47:09.304Z,51.3284
2023-04-08T00:48:10.868Z,51.4581
2023-04-08T00:49:12.515Z,51.5725
2023-04-08T00:50:14.217Z,51.7954
2023-04-08T00:51:15.838Z,51.8524
2023-04-08T00:52:17.507Z,51.4993
2023-04-08T00:53:20.129Z,51.1887
2023-04-08T00:54:21.577Z,50.8211
2023-04-08T00:55:22.445Z,50.7495
2023-04-08T00:56:24.066Z,50.8468
2023-04-08T00:57:25.688Z,51.2013
2023-04-08T00:58:27.369Z,51.1470
2023-04-08T00:59:29.038Z,50.8034
2023-04-08T01:00:31.266Z,50.4561
2023-04-08T01:01:33.197Z,50.1446
2023-04-08T01:02:34.815Z,50.1273
2023-04-08T01:03:35.788Z,50.2755
2023-04-08T01:04:37.347Z,50.5311
2023-04-08T01:05:39.040Z,50.5055
2023-04-08T01:06:40.832Z,50.2605
2023-04-08T01:07:42.424Z,50.0467
2023-04-08T01:08:43.999Z,49.7690
2023-04-08T01:09:45.743Z,49.7152
2023-04-08T01:10:47.347Z,49.8582
2023-04-08T01:11:48.953Z,50.1733
2023-04-08T01:12:50.693Z,50.2176
2023-04-08T01:13:52.343Z,49.9756
2023-04-08T01:14:53.889Z,49.7280
2023-04-08T01:15:55.683Z,49.5211
2023-04-08T01:16:57.214Z,49.4018
2023-04-08T01:17:58.912Z,49.4311
2023-04-08T01:19:00.586Z,49.6841
2023-04-08T01:20:02.255Z,49.7480
2023-04-08T01:21:03.860Z,49.7105
2023-04-08T01:22:05.417Z,49.7302
2023-04-08T01:23:07.078Z,49.6691
2023-04-08T01:24:08.693Z,49.6810
2023-04-08T01:25:11.187Z,49.7866
2023-04-08T01:26:12.081Z,49.8765
2023-04-08T01:27:13.720Z,49.9420
2023-04-08T01:28:15.494Z,49.9612
2023-04-08T01:29:17.010Z,49.9354
2023-04-08T01:30:18.721Z,49.9037
2023-04-08T01:31:20.341Z,49.9303
2023-04-08T01:32:21.987Z,49.9125
2023-04-08T01:33:23.731Z,49.8557
2023-04-08T01:34:25.412Z,49.8867
2023-04-08T01:35:27.095Z,49.8554
2023-04-08T01:36:28.694Z,49.7906
2023-04-08T01:37:30.362Z,49.7592
2023-04-08T01:38:32.012Z,49.6957
2023-04-08T01:39:33.689Z,49.6166
2023-04-08T01:40:35.374Z,49.5673
2023-04-08T01:41:37.038Z,49.6514
2023-04-08T01:42:38.634Z,51.3686
2023-04-08T01:43:40.261Z,54.2851
2023-04-08T01:44:42.101Z,54.2701
2023-04-08T01:45:43.704Z,53.7869
2023-04-08T01:46:45.404Z,53.1597
2023-04-08T01:47:46.967Z,52.6122
2023-04-08T01:48:48.868Z,52.1383
2023-04-08T01:49:50.319Z,52.1938
2023-04-08T01:50:52.730Z,52.4116
2023-04-08T01:51:53.657Z,52.6789
2023-04-08T01:52:55.181Z,52.4244
2023-04-08T01:53:56.896Z,51.9805
2023-04-08T01:54:58.588Z,51.5505
2023-04-08T01:56:00.210Z,51.1842
2023-04-08T01:57:01.768Z,51.1989
2023-04-08T01:58:03.460Z,51.3244
2023-04-08T01:59:05.132Z,51.6734
2023-04-08T02:00:06.819Z,51.3476
2023-04-08T02:01:08.449Z,50.9683
2023-04-08T02:02:10.141Z,50.6481
2023-04-08T02:03:11.885Z,50.2176
2023-04-08T02:04:13.440Z,50.3780
2023-04-08T02:05:15.009Z,50.6270
2023-04-08T02:06:16.798Z,50.9315
2023-04-08T02:07:18.330Z,50.7206
2023-04-08T02:08:20.029Z,50.4206
2023-04-08T02:09:21.650Z,50.1072
2023-04-08T02:10:23.354Z,49.8874
2023-04-08T02:11:24.973Z,50.0712
2023-04-08T02:12:26.584Z,50.1974
2023-04-08T02:13:28.259Z,50.3423
2023-04-08T02:14:29.881Z,49.9826
2023-04-08T02:15:31.632Z,49.6937
2023-04-08T02:16:33.305Z,49.3762
2023-04-08T02:17:35.819Z,49.2621
2023-04-08T02:18:36.545Z,49.3405
2023-04-08T02:19:38.196Z,49.6640
2023-04-08T02:20:40.606Z,49.6674
2023-04-08T02:21:41.582Z,49.4700
2023-04-08T02:22:43.209Z,49.2915
2023-04-08T02:23:44.868Z,49.0898
2023-04-08T02:24:46.460Z,49.1342
2023-04-08T02:25:48.136Z,49.2802
2023-04-08T02:26:49.794Z,49.5000
2023-04-08T02:27:51.443Z,49.4829
2023-04-08T02:28:53.210Z,49.2621
2023-04-08T02:29:54.784Z,49.0993
2023-04-08T02:30:56.412Z,48.9313
2023-04-08T02:31:58.167Z,48.8743
2023-04-08T02:32:59.796Z,49.0586
2023-04-08T02:34:01.368Z,49.4058
2023-04-08T02:35:03.008Z,49.2842
2023-04-08T02:36:04.721Z,49.1962
2023-04-08T02:37:07.179Z,49.1054
2023-04-08T02:38:07.979Z,49.1377
2023-04-08T02:39:09.725Z,49.3134
2023-04-08T02:40:11.336Z,53.1678
2023-04-08T02:41:12.961Z,54.1523
2023-04-08T02:42:14.681Z,54.1453
2023-04-08T02:43:16.291Z,53.3523
2023-04-08T02:44:17.926Z,52.8020
2023-04-08T02:45:19.583Z,52.2963
2023-04-08T02:46:21.333Z,52.1521
2023-04-08T02:47:22.951Z,52.2559
2023-04-08T02:48:24.537Z,52.5724
2023-04-08T02:49:26.222Z,52.5087
2023-04-08T02:50:27.858Z,52.1440
2023-04-08T02:51:29.537Z,51.7547
2023-04-08T02:52:31.208Z,51.3521
2023-04-08T02:53:32.898Z,51.4493
2023-04-08T02:54:35.304Z,51.7120
2023-04-08T02:55:36.223Z,50.5509
2023-04-08T02:56:37.922Z,48.9552
2023-04-08T02:57:39.565Z,47.7076
2023-04-08T02:58:41.157Z,46.5200
2023-04-08T02:59:42.765Z,45.8675
2023-04-08T03:00:44.511Z,45.8129
2023-04-08T03:01:46.148Z,46.1077
2023-04-08T03:02:48.083Z,46.4279
2023-04-08T03:03:49.580Z,46.7026
2023-04-08T03:04:51.098Z,46.7256
2023-04-08T03:05:52.774Z,46.6201
2023-04-08T03:06:54.382Z,46.7791
2023-04-08T03:07:56.368Z,46.8948
2023-04-08T03:08:57.711Z,47.0279
2023-04-08T03:09:59.333Z,46.8216
2023-04-08T03:11:01.010Z,46.5759
2023-04-08T03:12:02.585Z,46.4992
2023-04-08T03:13:04.321Z,46.4555
2023-04-08T03:14:05.970Z,46.5474
2023-04-08T03:15:07.686Z,46.6886
2023-04-08T03:16:09.255Z,46.6041
2023-04-08T03:17:10.998Z,46.3583
2023-04-08T03:18:12.631Z,46.2473
2023-04-08T03:19:14.189Z,46.2246
2023-04-08T03:20:15.861Z,46.3169
2023-04-08T03:21:17.592Z,46.3761
2023-04-08T03:22:19.157Z,46.4043
2023-04-08T03:23:20.886Z,46.2666
2023-04-08T03:24:22.505Z,46.0860
2023-04-08T03:25:24.053Z,46.0080
2023-04-08T03:26:25.806Z,46.0674
2023-04-08T03:27:27.458Z,46.1375
2023-04-08T03:28:29.140Z,46.1841
2023-04-08T03:29:30.865Z,46.1846
2023-04-08T03:30:32.476Z,46.1257
2023-04-08T03:31:34.125Z,45.9191
2023-04-08T03:32:35.815Z,45.7971
2023-04-08T03:33:37.475Z,45.8623
2023-04-08T03:34:39.093Z,45.8890
2023-04-08T03:35:40.814Z,45.9067
2023-04-08T03:36:42.381Z,45.8295
2023-04-08T03:37:44.080Z,45.8794
2023-04-08T03:38:45.674Z,45.8391
2023-04-08T03:39:47.320Z,45.7323
2023-04-08T03:40:48.951Z,45.6236
2023-04-08T03:41:50.615Z,45.6248
2023-04-08T03:42:52.315Z,45.5952
2023-04-08T03:43:53.930Z,45.5986
2023-04-08T03:44:55.582Z,45.6177
2023-04-08T03:45:57.241Z,45.4233
2023-04-08T03:46:58.906Z,45.2805
2023-04-08T03:48:00.626Z,45.3693
2023-04-08T03:49:03.121Z,45.4366
2023-04-08T03:50:03.861Z,45.4314
2023-04-08T03:51:05.489Z,45.4410
2023-04-08T03:52:07.228Z,45.4687
2023-04-08T03:53:08.820Z,45.3002
2023-04-08T03:54:11.455Z,45.1549
2023-04-08T03:55:12.099Z,44.8714
2023-04-08T03:56:13.758Z,44.8472
2023-04-08T03:57:15.416Z,44.8929
2023-04-08T03:58:17.068Z,44.9776
2023-04-08T03:59:19.612Z,45.0010
2023-04-08T04:00:20.397Z,45.0048
2023-04-08T04:01:22.049Z,45.0694
2023-04-08T04:02:23.954Z,45.0376
2023-04-08T04:03:25.417Z,44.8495
2023-04-08T04:04:28.248Z,44.8062
2023-04-08T04:05:28.712Z,44.8680
2023-04-08T04:06:30.296Z,44.8529
2023-04-08T04:07:31.960Z,44.9687
2023-04-08T04:08:33.607Z,45.0612
2023-04-08T04:09:35.317Z,44.9845
2023-04-08T04:10:36.917Z,44.8247
2023-04-08T04:11:38.574Z,44.8200
2023-04-08T04:12:40.318Z,44.7940
2023-04-08T04:13:41.953Z,44.8780
2023-04-08T04:14:43.664Z,44.8492
2023-04-08T04:15:45.251Z,44.8972
2023-04-08T04:16:46.833Z,44.8788
2023-04-08T04:17:49.216Z,44.8024
2023-04-08T04:18:51.067Z,44.8165
2023-04-08T04:19:51.943Z,44.8454
2023-04-08T04:20:53.610Z,44.8789
2023-04-08T04:21:55.253Z,44.8882
2023-04-08T04:22:56.862Z,44.9025
2023-04-08T04:23:58.492Z,44.7397
2023-04-08T04:25:00.129Z,44.6542
2023-04-08T04:26:01.886Z,44.6449
2023-04-08T04:27:03.525Z,44.6839
2023-04-08T04:28:05.208Z,44.7230
2023-04-08T04:29:06.789Z,44.6406
2023-04-08T04:30:08.497Z,44.6375
2023-04-08T04:31:10.143Z,44.4716
2023-04-08T04:32:11.746Z,44.3529
2023-04-08T04:33:13.405Z,44.3667
2023-04-08T04:34:15.054Z,44.4306
2023-04-08T04:35:16.807Z,44.4329
2023-04-08T04:36:18.379Z,44.4115
2023-04-08T04:37:20.054Z,44.4770
2023-04-08T04:38:21.697Z,44.3495
2023-04-08T04:39:23.329Z,44.2662
2023-04-08T04:40:25.105Z,44.2718
2023-04-08T04:41:26.643Z,44.2891
2023-04-08T04:42:28.287Z,44.3100
2023-04-08T04:43:29.939Z,44.3421
2023-04-08T04:44:31.613Z,44.3992
2023-04-08T04:45:33.193Z,44.2740
2023-04-08T04:46:34.967Z,43.8897
2023-04-08T04:47:36.598Z,43.7734
2023-04-08T04:48:38.234Z,43.9594
2023-04-08T04:49:39.923Z,44.0409
2023-04-08T04:50:42.016Z,44.0896
2023-04-08T04:51:43.205Z,44.3642
2023-04-08T04:52:44.900Z,44.5689
2023-04-08T04:53:46.588Z,44.2171
2023-04-08T04:54:48.172Z,43.7853
2023-04-08T04:55:49.834Z,43.8135
2023-04-08T04:56:51.482Z,43.8914
2023-04-08T04:57:53.174Z,44.1342
2023-04-08T04:58:54.793Z,44.1928
2023-04-08T04:59:56.485Z,44.3085
2023-04-08T05:00:58.114Z,44.2460
2023-04-08T05:01:59.819Z,44.2134
2023-04-08T05:03:01.501Z,44.2152
2023-04-08T05:04:03.091Z,44.3737
2023-04-08T05:05:04.743Z,44.3844
2023-04-08T05:06:06.894Z,44.1327
2023-04-08T05:07:08.001Z,44.0824
2023-04-08T05:08:09.729Z,44.1255
2023-04-08T05:09:11.424Z,44.2055
2023-04-08T05:10:12.895Z,44.4087
2023-04-08T05:11:14.691Z,44.6843
2023-04-08T05:12:16.401Z,44.8418
2023-04-08T05:13:17.945Z,44.8882
2023-04-08T05:14:19.694Z,44.8319
2023-04-08T05:15:21.385Z,44.7672
2023-04-08T05:16:22.990Z,44.6551
2023-04-08T05:17:24.840Z,44.6443
2023-04-08T05:18:26.276Z,44.6429
2023-04-08T05:19:27.919Z,44.7322
2023-04-08T05:20:29.419Z,44.8570
2023-04-08T05:21:31.270Z,44.9263
2023-04-08T05:22:32.736Z,45.0187
2023-04-08T05:23:34.553Z,45.1075
2023-04-08T05:24:36.122Z,45.0314
2023-04-08T05:25:37.819Z,45.0285
2023-04-08T05:26:39.565Z,45.1331
2023-04-08T05:27:41.148Z,45.2273
2023-04-08T05:28:42.749Z,45.2257
2023-04-08T05:29:44.554Z,45.2448
2023-04-08T05:30:46.118Z,45.4667
2023-04-08T05:31:47.813Z,45.5919
2023-04-08T05:32:49.474Z,45.6254
2023-04-08T05:33:51.057Z,45.5743
2023-04-08T05:34:52.660Z,45.5323
2023-04-08T05:35:54.483Z,45.6670
2023-04-08T05:36:56.113Z,45.7175
2023-04-08T05:37:57.703Z,45.6957
2023-04-08T05:39:00.402Z,45.7193
2023-04-08T05:40:01.016Z,45.7998
2023-04-08T05:41:02.687Z,46.0773
2023-04-08T05:42:04.376Z,46.1138
2023-04-08T05:43:06.385Z,46.3783
2023-04-08T05:44:07.738Z,46.1991
2023-04-08T05:45:09.279Z,46.1360
2023-04-08T05:46:10.933Z,46.0599
2023-04-08T05:47:12.675Z,45.8691
2023-04-08T05:48:14.368Z,45.9544
2023-04-08T05:49:15.997Z,46.2626
2023-04-08T05:50:17.596Z,45.9913
2023-04-08T05:51:19.176Z,45.8837
2023-04-08T05:52:21.976Z,45.8539
2023-04-08T05:53:22.825Z,45.7058
2023-04-08T05:54:24.168Z,45.8688
2023-04-08T05:55:25.912Z,46.1806
2023-04-08T05:56:27.601Z,45.9986
2023-04-08T05:57:29.179Z,45.8257
2023-04-08T05:58:30.851Z,45.7829
2023-04-08T05:59:32.683Z,45.6417
2023-04-08T06:00:34.082Z,45.8264
2023-04-08T06:01:35.816Z,46.1138
2023-04-08T06:02:38.481Z,45.8323
2023-04-08T06:03:39.141Z,45.6939
2023-04-08T06:04:40.780Z,45.6845
2023-04-08T06:05:42.360Z,45.5341
2023-04-08T06:06:43.975Z,45.7721
2023-04-08T06:07:45.677Z,46.0136
2023-04-08T06:08:47.397Z,45.8154
2023-04-08T06:09:49.035Z,45.8405
2023-04-08T06:10:50.626Z,45.6766
2023-04-08T06:11:52.324Z,45.6480
2023-04-08T06:12:54.011Z,45.9737
2023-04-08T06:13:55.700Z,45.9198
2023-04-08T06:14:57.281Z,45.7189
2023-04-08T06:15:58.944Z,45.7433
2023-04-08T06:17:00.667Z,45.4806
2023-04-08T06:18:02.345Z,45.6151
2023-04-08T06:19:03.807Z,45.9956
2023-04-08T06:20:05.519Z,45.8808
2023-04-08T06:21:07.165Z,45.6361
2023-04-08T06:22:08.792Z,45.4765
2023-04-08T06:23:10.471Z,45.3879
2023-04-08T06:24:12.391Z,45.6148
2023-04-08T06:25:13.819Z,45.9673
2023-04-08T06:26:16.337Z,45.6772
2023-04-08T06:27:17.069Z,45.5100
2023-04-08T06:28:18.743Z,45.2850
2023-04-08T06:29:20.366Z,45.3463
2023-04-08T06:30:22.009Z,45.8350
2023-04-08T06:31:23.695Z,45.7491
2023-04-08T06:32:25.292Z,45.4537
2023-04-08T06:33:27.098Z,45.3150
2023-04-08T06:34:28.658Z,45.1809
2023-04-08T06:35:31.861Z,45.3838
2023-04-08T06:36:32.189Z,45.8283
2023-04-08T06:37:33.578Z,45.5277
2023-04-08T06:38:35.323Z,45.4322
2023-04-08T06:39:36.891Z,45.1953
2023-04-08T06:40:38.521Z,45.1562
2023-04-08T06:41:40.135Z,45.2980
2023-04-08T06:42:41.728Z,45.5392
2023-04-08T06:43:43.468Z,45.4800
2023-04-08T06:44:45.159Z,45.4058
2023-04-08T06:45:46.708Z,45.3055
2023-04-08T06:46:48.414Z,45.2878
2023-04-08T06:47:50.081Z,45.5203
2023-04-08T06:48:51.941Z,45.6762
2023-04-08T06:49:53.386Z,45.4146
2023-04-08T06:50:54.978Z,45.1975
2023-04-08T06:51:56.724Z,44.9915
2023-04-08T06:52:58.348Z,45.0744
2023-04-08T06:53:59.984Z,45.5986
2023-04-08T06:55:01.960Z,45.7728
2023-04-08T06:56:03.217Z,45.5943
2023-04-08T06:57:05.820Z,45.2266
2023-04-08T06:58:06.499Z,45.0631
2023-04-08T06:59:08.268Z,45.2503
2023-04-08T07:00:09.949Z,45.3110
2023-04-08T07:01:12.236Z,45.0380
2023-04-08T07:02:13.152Z,44.8739
2023-04-08T07:03:14.864Z,44.6089
2023-04-08T07:04:16.571Z,44.6826
2023-04-08T07:05:18.126Z,44.9865
2023-04-08T07:06:19.737Z,45.1635
2023-04-08T07:07:21.433Z,44.8292
2023-04-08T07:08:23.045Z,44.5718
2023-04-08T07:09:24.752Z,44.2871
2023-04-08T07:10:26.423Z,44.3250
2023-04-08T07:11:28.033Z,44.8274
2023-04-08T07:12:30.254Z,44.9787
2023-04-08T07:13:31.331Z,44.8153
2023-04-08T07:14:33.073Z,44.7042
2023-04-08T07:15:34.608Z,44.5178
2023-04-08T07:16:36.225Z,44.6287
2023-04-08T07:17:38.875Z,44.9736
2023-04-08T07:18:39.596Z,44.7132
2023-04-08T07:19:41.514Z,44.4907
2023-04-08T07:20:42.790Z,44.4015
2023-04-08T07:21:44.498Z,44.2114
2023-04-08T07:22:46.104Z,44.3937
2023-04-08T07:23:48.294Z,44.5756
2023-04-08T07:24:49.462Z,44.3267
2023-04-08T07:25:51.066Z,44.0665
2023-04-08T07:26:52.725Z,43.9897
2023-04-08T07:27:55.256Z,43.8371
2023-04-08T07:28:56.018Z,44.2367
2023-04-08T07:29:57.790Z,44.2022
2023-04-08T07:30:59.322Z,43.9130
2023-04-08T07:32:00.938Z,43.7252
2023-04-08T07:33:02.673Z,43.7205
2023-04-08T07:34:04.281Z,43.6826
2023-04-08T07:35:06.262Z,44.1369
2023-04-08T07:36:07.568Z,44.0456
2023-04-08T07:37:09.191Z,43.6674
2023-04-08T07:38:11.830Z,43.6061
2023-04-08T07:39:12.461Z,43.4031
2023-04-08T07:40:14.311Z,43.2449
2023-04-08T07:41:15.830Z,43.6199
2023-04-08T07:42:17.421Z,43.6186
2023-04-08T07:43:19.099Z,43.3240
2023-04-08T07:44:20.736Z,43.0775
2023-04-08T07:45:22.419Z,43.0964
2023-04-08T07:46:24.132Z,43.0614
2023-04-08T07:47:25.805Z,43.5921
2023-04-08T07:48:27.360Z,43.4435
2023-04-08T07:49:29.013Z,43.1161
2023-04-08T07:50:30.902Z,43.0554
2023-04-08T07:51:32.467Z,42.8298
2023-04-08T07:52:34.022Z,43.1393
2023-04-08T07:53:35.726Z,43.4649
2023-04-08T07:54:37.352Z,43.2076
2023-04-08T07:55:39.136Z,42.9002
2023-04-08T07:56:40.710Z,42.8250
2023-04-08T07:57:42.384Z,42.6550
2023-04-08T07:58:44.091Z,43.0740
2023-04-08T07:59:45.628Z,43.3091
2023-04-08T08:00:47.467Z,43.0654
2023-04-08T08:01:49.251Z,42.6912
2023-04-08T08:02:50.577Z,42.6311
2023-04-08T08:03:53.021Z,42.4653
2023-04-08T08:04:53.910Z,43.0059
2023-04-08T08:05:55.918Z,43.0765
2023-04-08T08:06:57.231Z,42.7461
2023-04-08T08:07:58.917Z,42.5350
2023-04-08T08:09:01.272Z,42.6114
2023-04-08T08:10:02.104Z,42.4713
2023-04-08T08:11:03.882Z,42.8393
2023-04-08T08:12:05.396Z,42.8372
2023-04-08T08:13:07.057Z,42.5516
2023-04-08T08:14:08.714Z,42.4420
2023-04-08T08:15:10.537Z,42.3854
2023-04-08T08:16:12.371Z,42.4331
2023-04-08T08:17:13.657Z,42.9602
2023-04-08T08:18:15.398Z,42.8076
2023-04-08T08:19:17.018Z,42.3901
2023-04-08T08:20:18.725Z,42.2891
2023-04-08T08:21:20.312Z,42.1562
2023-04-08T08:22:21.926Z,42.2950
2023-04-08T08:23:23.585Z,42.7506
2023-04-08T08:24:25.242Z,42.7018
2023-04-08T08:25:26.982Z,42.3705
2023-04-08T08:26:28.612Z,42.3242
2023-04-08T08:27:30.282Z,42.2467
2023-04-08T08:28:31.924Z,42.3633
2023-04-08T08:29:33.587Z,42.8465
2023-04-08T08:30:35.202Z,42.7071
2023-04-08T08:31:36.971Z,42.3858
2023-04-08T08:32:38.530Z,42.2456
2023-04-08T08:33:40.106Z,42.3867
2023-04-08T08:34:41.807Z,42.3205
2023-04-08T08:35:43.421Z,42.7354
2023-04-08T08:36:45.079Z,42.6136
2023-04-08T08:37:46.708Z,42.3095
2023-04-08T08:38:48.325Z,42.2994
2023-04-08T08:39:50.196Z,42.0813
2023-04-08T08:40:51.696Z,42.3505
2023-04-08T08:41:53.319Z,42.6683
2023-04-08T08:42:54.955Z,42.4658
2023-04-08T08:43:56.641Z,42.1114
2023-04-08T08:44:58.291Z,42.1136
2023-04-08T08:45:59.934Z,41.9575
2023-04-08T08:47:02.564Z,42.2983
2023-04-08T08:48:03.285Z,42.5464
2023-04-08T08:49:04.874Z,42.2682
2023-04-08T08:50:06.609Z,41.9105
2023-04-08T08:51:08.163Z,41.8778
2023-04-08T08:52:09.888Z,41.7451
2023-04-08T08:53:12.672Z,42.2025
2023-04-08T08:54:13.185Z,42.3832
2023-04-08T08:55:32.510Z,42.0629
2023-04-08T08:56:18.352Z,41.7191
2023-04-08T08:57:18.032Z,41.5595
2023-04-08T08:58:19.711Z,41.6688
2023-04-08T08:59:21.912Z,42.1442
2023-04-08T09:00:23.004Z,42.1525
2023-04-08T09:01:25.360Z,41.8255
2023-04-08T09:02:26.424Z,41.6839
2023-04-08T09:03:28.396Z,41.6831
2023-04-08T09:04:29.641Z,41.7011
2023-04-08T09:05:31.306Z,42.2089
2023-04-08T09:06:32.925Z,42.0858
2023-04-08T09:07:34.547Z,41.6701
2023-04-08T09:08:36.207Z,41.5764
2023-04-08T09:09:38.486Z,41.3598
2023-04-08T09:10:39.606Z,41.6300
2023-04-08T09:11:41.199Z,42.1016
2023-04-08T09:12:42.921Z,42.0893
2023-04-08T09:13:44.447Z,41.7173
2023-04-08T09:14:46.102Z,41.5704
2023-04-08T09:15:47.744Z,41.4045
2023-04-08T09:16:49.525Z,41.5679
2023-04-08T09:17:51.517Z,41.9743
2023-04-08T09:18:52.798Z,41.7705
2023-04-08T09:19:54.411Z,41.4365
2023-04-08T09:20:56.094Z,41.2261
2023-04-08T09:21:58.056Z,41.1556
2023-04-08T09:22:59.354Z,41.3115
2023-04-08T09:24:00.974Z,41.7006
2023-04-08T09:25:02.637Z,41.6007
2023-04-08T09:26:04.334Z,41.2120
2023-04-08T09:27:06.009Z,41.0198
2023-04-08T09:28:07.631Z,41.0635
2023-04-08T09:29:24.360Z,41.3131
2023-04-08T09:30:10.908Z,41.9158
2023-04-08T09:31:12.648Z,42.0907
2023-04-08T09:32:14.185Z,41.9090
2023-04-08T09:33:15.949Z,41.7763
2023-04-08T09:34:17.475Z,41.8139
2023-04-08T09:35:19.194Z,41.9984
2023-04-08T09:36:20.833Z,42.5150
2023-04-08T09:37:22.474Z,42.7093
2023-04-08T09:38:24.202Z,42.3317
2023-04-08T09:39:25.805Z,42.0860
2023-04-08T09:40:27.545Z,42.0390
2023-04-08T09:41:29.153Z,42.0106
2023-04-08T09:42:30.745Z,42.3024
2023-04-08T09:43:33.031Z,42.5067
2023-04-08T09:44:34.189Z,42.2371
2023-04-08T09:45:35.773Z,41.8589
2023-04-08T09:46:37.328Z,41.7304
2023-04-08T09:47:39.052Z,41.6081
2023-04-08T09:48:40.728Z,41.8841
2023-04-08T09:49:42.373Z,42.1272
2023-04-08T09:50:44.081Z,41.8775
2023-04-08T09:51:45.656Z,41.4127
2023-04-08T09:52:47.319Z,41.2512
2023-04-08T09:53:49.184Z,41.1284
2023-04-08T09:54:50.605Z,41.3409
2023-04-08T09:55:52.266Z,41.5148
2023-04-08T09:56:53.960Z,41.3820
2023-04-08T09:57:55.602Z,41.0370
2023-04-08T09:58:57.499Z,41.0209
2023-04-08T09:59:58.925Z,40.9734
2023-04-08T10:01:00.564Z,41.1228
2023-04-08T10:02:02.269Z,41.4064
2023-04-08T10:03:03.932Z,41.1429
2023-04-08T10:04:05.570Z,41.0085
2023-04-08T10:05:08.405Z,40.9211
2023-04-08T10:06:08.804Z,41.0671
2023-04-08T10:07:10.398Z,41.4776
2023-04-08T10:08:12.022Z,41.3983
2023-04-08T10:09:14.527Z,41.1453
2023-04-08T10:10:15.366Z,41.2083
2023-04-08T10:11:16.981Z,41.0097
2023-04-08T10:12:18.718Z,41.1727
2023-04-08T10:13:20.319Z,41.5030
2023-04-08T10:14:21.986Z,41.2803
2023-04-08T10:15:23.556Z,41.0158
2023-04-08T10:16:25.275Z,41.0181
2023-04-08T10:17:27.771Z,40.9588
2023-04-08T10:18:28.534Z,41.1876
2023-04-08T10:19:30.211Z,41.3248
2023-04-08T10:20:31.840Z,40.9369
2023-04-08T10:21:33.635Z,40.5499
2023-04-08T10:22:35.162Z,40.4251
2023-04-08T10:23:36.797Z,40.4743
2023-04-08T10:24:38.435Z,40.7273
2023-04-08T10:25:40.093Z,40.7577
2023-04-08T10:26:41.786Z,40.4960
2023-04-08T10:27:43.400Z,40.1556
2023-04-08T10:28:45.050Z,40.2041
2023-04-08T10:29:47.104Z,40.1527
2023-04-08T10:30:49.101Z,40.4520
2023-04-08T10:31:49.917Z,40.2999
2023-04-08T10:32:51.590Z,39.8512
2023-04-08T10:33:53.177Z,39.6796
2023-04-08T10:34:54.862Z,39.7517
2023-04-08T10:35:56.510Z,40.0612
2023-04-08T10:36:58.835Z,40.5059
2023-04-08T10:37:59.889Z,40.4687
2023-04-08T10:39:01.616Z,40.2781
2023-04-08T10:40:03.188Z,40.2882
2023-04-08T10:41:04.782Z,40.3681
2023-04-08T10:42:06.460Z,40.7322
2023-04-08T10:43:08.129Z,41.1154
2023-04-08T10:44:09.849Z,41.0660
2023-04-08T10:45:11.466Z,40.8055
2023-04-08T10:46:13.128Z,40.7005
2023-04-08T10:47:14.725Z,40.6767
2023-04-08T10:48:16.404Z,41.1348
2023-04-08T10:49:18.013Z,41.3883
2023-04-08T10:50:19.750Z,41.1834
2023-04-08T10:51:21.403Z,40.8347
2023-04-08T10:52:23.035Z,40.7577
2023-04-08T10:53:24.754Z,40.8089
2023-04-08T10:54:26.361Z,41.1715
2023-04-08T10:55:28.841Z,41.3319
2023-04-08T10:56:29.591Z,41.0876
2023-04-08T10:57:31.274Z,40.7851
2023-04-08T10:58:32.920Z,40.7394
2023-04-08T10:59:34.710Z,40.6738
2023-04-08T11:00:36.264Z,40.9296
2023-04-08T11:01:38.019Z,41.0450
2023-04-08T11:02:39.703Z,40.7303
2023-04-08T11:03:41.410Z,40.4072
2023-04-08T11:04:42.924Z,40.4364
2023-04-08T11:05:44.555Z,40.5025
2023-04-08T11:06:46.607Z,40.7836
2023-04-08T11:07:47.876Z,40.8131
2023-04-08T11:08:49.418Z,40.5739
2023-04-08T11:09:51.171Z,40.5627
2023-04-08T11:10:52.884Z,40.4898
2023-04-08T11:11:54.411Z,40.6533
2023-04-08T11:12:56.120Z,40.9210
2023-04-08T11:13:58.504Z,40.8548
2023-04-08T11:14:59.353Z,40.7440
2023-04-08T11:16:02.156Z,40.6677
2023-04-08T11:17:02.656Z,40.6294
2023-04-08T11:18:04.414Z,40.8312
2023-04-08T11:19:05.970Z,41.0967
2023-04-08T11:20:07.599Z,40.8609
2023-04-08T11:21:09.213Z,40.7770
2023-04-08T11:22:11.374Z,40.5735
2023-04-08T11:23:12.410Z,40.4958
2023-04-08T11:24:14.146Z,40.8068
2023-04-08T11:25:15.728Z,40.7977
2023-04-08T11:26:17.468Z,40.7847
2023-04-08T11:27:19.079Z,40.7361
2023-04-08T11:28:20.660Z,40.4678
2023-04-08T11:29:22.369Z,40.3486
2023-04-08T11:30:24.006Z,40.6197
2023-04-08T11:31:25.743Z,40.6412
2023-04-08T11:32:27.313Z,40.7315
2023-04-08T11:33:28.981Z,40.8946
2023-04-08T11:34:30.588Z,40.5234
2023-04-08T11:35:32.318Z,40.2840
2023-04-08T11:36:33.962Z,40.3553
2023-04-08T11:37:35.630Z,40.5200
2023-04-08T11:38:37.255Z,40.5728
2023-04-08T11:39:38.830Z,40.8408
2023-04-08T11:40:41.844Z,40.8553
2023-04-08T11:41:42.296Z,40.4141
2023-04-08T11:42:46.027Z,40.3256
2023-04-08T11:43:45.531Z,40.3766
2023-04-08T11:44:47.123Z,40.3616
2023-04-08T11:45:48.734Z,40.3209
2023-04-08T11:46:50.647Z,40.5978
2023-04-08T11:47:52.105Z,40.4830
2023-04-08T11:48:53.705Z,40.3002
2023-04-08T11:49:55.434Z,40.2398
2023-04-08T11:50:57.040Z,40.4090
2023-04-08T11:51:58.740Z,40.3883
2023-04-08T11:53:00.401Z,40.1401
2023-04-08T11:54:02.366Z,40.5560
2023-04-08T11:55:03.662Z,40.5780
2023-04-08T11:56:05.312Z,40.3290
2023-04-08T11:57:07.018Z,40.3765
2023-04-08T11:58:09.397Z,40.4543
2023-04-08T11:59:10.150Z,40.3473
2023-04-08T12:00:11.920Z,40.1188
2023-04-08T12:01:13.471Z,40.6244
2023-04-08T12:02:15.286Z,40.3725
2023-04-08T12:03:16.898Z,40.1275
2023-04-08T12:04:18.652Z,40.1092
2023-04-08T12:05:20.113Z,40.1415
2023-04-08T12:06:21.728Z,40.1360
2023-04-08T12:07:23.481Z,39.8527
2023-04-08T12:08:25.076Z,40.3187
2023-04-08T12:09:26.681Z,40.0553
2023-04-08T12:10:28.331Z,39.7862
2023-04-08T12:11:29.945Z,39.8476
2023-04-08T12:12:31.701Z,39.9281
2023-04-08T12:13:33.290Z,39.8971
2023-04-08T12:14:34.914Z,39.8384
2023-04-08T12:15:37.513Z,39.7685
2023-04-08T12:16:38.427Z,40.2295
2023-04-08T12:17:40.055Z,40.0379
2023-04-08T12:18:41.639Z,40.2302
2023-04-08T12:19:43.250Z,40.3597
2023-04-08T12:20:44.888Z,40.4779
2023-04-08T12:21:46.657Z,40.5193
2023-04-08T12:22:48.347Z,40.6608
2023-04-08T12:23:50.114Z,40.6019
2023-04-08T12:24:51.493Z,40.7550
2023-04-08T12:25:53.124Z,41.0054